Time;durP1;ratioP1;P1;durP2;ratioP2;P2;SDS_P1;SDS_P2;PMS_P1;PMS_P2;Temp;Humidity;BMP_temperature;BMP_pressure;BME280_temperature;BME280_humidity;BME280_pressure;Samples;Min_cycle;Max_cycle;Signal;HPM_P1;HPM_P2
2022/12/23 00:01:36;;;;;;;;;1.75;0.50;;;;;14.18;79.22;100224.31;5036734;28;45523;-59
2022/12/23 00:04:02;;;;;;;;;1.00;0.00;;;;;14.16;79.00;100216.31;5051712;28;45395;-58
2022/12/23 00:06:27;;;;;;;;;2.75;2.75;;;;;14.20;79.50;100228.50;5036228;28;46345;-58
2022/12/23 00:08:56;;;;;;;;;1.00;1.00;;;;;14.18;79.30;100227.94;5036313;28;45414;-60
2022/12/23 00:11:22;;;;;;;;;4.00;3.00;;;;;14.15;79.06;100225.66;5036039;28;45234;-57
2022/12/23 00:16:35;;;;;;;;;0.40;0.40;;;;;14.16;79.14;100220.97;5035841;28;45349;-56
2022/12/23 00:19:00;;;;;;;;;1.60;0.80;;;;;14.01;79.75;100194.78;5036080;28;45280;-59
2022/12/23 00:21:26;;;;;;;;;0.00;0.00;;;;;14.19;79.73;100214.97;5036072;28;45386;-59
2022/12/23 00:23:51;;;;;;;;;0.75;0.00;;;;;14.17;80.13;100229.00;5036463;28;45476;-59
2022/12/23 00:26:24;;;;;;;;;1.00;0.00;;;;;14.10;80.10;100233.84;5035856;28;46103;-60
2022/12/23 00:28:50;;;;;;;;;0.00;0.00;;;;;14.11;80.72;100238.28;5034669;28;45241;-55
2022/12/23 00:31:17;;;;;;;;;0.00;0.00;;;;;14.08;80.61;100236.00;5035903;28;45677;-58
2022/12/23 00:33:44;;;;;;;;;0.00;0.00;;;;;14.03;81.15;100228.47;5035848;28;45349;-59
2022/12/23 00:36:23;;;;;;;;;0.00;0.00;;;;;14.04;81.15;100226.56;5035728;28;46055;-59
2022/12/23 00:44:17;;;;;;;;;0.00;0.00;;;;;14.10;81.52;100223.63;5055532;28;45490;-59
2022/12/23 00:46:42;;;;;;;;;1.50;0.00;;;;;14.11;81.66;100224.50;5055481;28;45397;-58
2022/12/23 00:51:54;;;;;;;;;0.00;0.00;;;;;13.94;83.14;100211.47;5047477;28;45190;-60
2022/12/23 00:54:20;;;;;;;;;0.00;0.00;;;;;14.08;83.12;100236.84;5044237;28;45723;-59
2022/12/23 00:56:46;;;;;;;;;0.00;0.00;;;;;14.08;83.19;100239.63;5053689;28;45401;-59
2022/12/23 00:59:11;;;;;;;;;1.00;0.00;;;;;14.05;83.83;100247.56;5055438;28;45390;-55
2022/12/23 01:07:06;;;;;;;;;0.00;0.00;;;;;14.07;84.33;100261.94;5055372;28;45910;-57
2022/12/23 01:09:31;;;;;;;;;0.80;0.80;;;;;14.00;84.53;100255.72;5055259;28;45471;-57
2022/12/23 01:11:57;;;;;;;;;0.00;0.00;;;;;13.40;84.82;100162.19;5055329;28;45499;-59
2022/12/23 01:14:22;;;;;;;;;0.00;0.00;;;;;13.45;84.64;100165.03;5055281;28;45423;-59
2022/12/23 01:16:48;;;;;;;;;1.00;0.00;;;;;14.03;84.99;100255.25;5053704;28;45666;-58
2022/12/23 01:19:13;;;;;;;;;0.00;0.00;;;;;14.06;84.58;100260.25;5055238;28;45471;-59
2022/12/23 01:21:39;;;;;;;;;0.00;0.00;;;;;14.02;84.52;100253.56;5055305;28;45355;-59
2022/12/23 01:24:04;;;;;;;;;0.00;0.00;;;;;14.02;84.91;100250.78;5053962;28;45389;-59
2022/12/23 01:26:30;;;;;;;;;0.00;0.00;;;;;13.85;85.22;100237.81;5055125;28;46462;-59
2022/12/23 01:28:56;;;;;;;;;0.00;0.00;;;;;14.06;84.84;100265.78;5054690;28;45375;-59
2022/12/23 01:31:22;;;;;;;;;0.00;0.00;;;;;14.05;85.38;100269.63;5055071;28;45326;-56
2022/12/23 01:33:48;;;;;;;;;1.00;0.00;;;;;14.03;85.09;100261.59;5054880;28;45561;-56
2022/12/23 01:36:13;;;;;;;;;0.00;0.00;;;;;14.01;85.70;100263.78;5054683;28;45258;-58
2022/12/23 01:38:39;;;;;;;;;0.00;0.00;;;;;13.81;85.34;100231.09;5054702;28;45250;-59
2022/12/23 01:41:04;;;;;;;;;0.00;0.00;;;;;14.00;85.48;100258.47;5048163;28;45244;-58
2022/12/23 01:43:47;;;;;;;;;0.00;0.00;;;;;13.95;85.52;100248.19;5034875;28;45240;-58
2022/12/23 01:46:13;;;;;;;;;0.00;0.00;;;;;14.02;85.42;100261.81;5034369;28;47379;-59
2022/12/23 01:48:39;;;;;;;;;0.00;0.00;;;;;14.03;85.58;100258.00;5034825;28;45228;-59
2022/12/23 01:51:06;;;;;;;;;0.00;0.00;;;;;14.04;85.54;100263.25;5033218;28;45396;-59
2022/12/23 01:53:33;;;;;;;;;0.00;0.00;;;;;14.01;84.98;100263.78;5034782;28;45536;-59
2022/12/23 01:56:05;;;;;;;;;0.20;0.20;;;;;13.45;85.39;100175.22;5016404;28;45406;-53
2022/12/23 01:58:35;;;;;;;;;0.20;0.00;;;;;14.05;84.90;100269.63;5032483;28;45401;-58
2022/12/23 02:03:45;;;;;;;;;1.00;0.00;;;;;14.05;84.86;100266.88;5054015;28;45471;-59
2022/12/23 02:09:17;;;;;;;;;0.00;0.00;;;;;14.05;84.66;100267.69;5052960;28;45368;-58
2022/12/23 02:12:13;;;;;;;;;0.60;0.60;;;;;14.05;85.06;100270.44;5054648;28;45430;-59
2022/12/23 02:18:25;;;;;;;;;1.20;0.00;;;;;14.04;84.35;100270.72;5057096;28;45398;-59
2022/12/23 02:21:29;;;;;;;;;0.20;0.20;;;;;14.02;84.41;100261.81;5061333;28;45356;-60
2022/12/23 02:24:19;;;;;;;;;1.00;1.00;;;;;14.02;84.37;100259.06;5056571;28;45517;-59
2022/12/23 02:27:12;;;;;;;;;0.00;0.00;;;;;14.02;83.50;100257.16;5056713;28;45460;-57
2022/12/23 02:30:00;;;;;;;;;0.80;0.80;;;;;14.01;83.77;100257.41;5057710;28;46605;-58
2022/12/23 02:32:39;;;;;;;;;0.00;0.00;;;;;13.88;83.70;100240.06;5057585;28;45467;-59
2022/12/23 02:35:10;;;;;;;;;2.00;0.00;;;;;13.93;83.14;100253.94;5056445;28;45558;-60
2022/12/23 02:37:39;;;;;;;;;2.80;1.20;;;;;13.91;83.03;100253.38;5057632;28;45427;-59
2022/12/23 02:40:12;;;;;;;;;0.20;0.00;;;;;13.92;82.91;100249.53;5055963;28;46575;-59
2022/12/23 02:42:50;;;;;;;;;1.20;0.40;;;;;13.97;83.41;100254.28;5023751;28;45456;-58
2022/12/23 02:45:41;;;;;;;;;0.20;0.20;;;;;13.94;82.65;100243.78;5019623;28;45873;-59
2022/12/23 02:48:11;;;;;;;;;2.00;0.40;;;;;13.80;82.24;100222.00;5035876;28;45508;-59
2022/12/23 02:50:37;;;;;;;;;2.80;0.00;;;;;14.02;82.26;100253.56;5035687;28;46483;-59
2022/12/23 02:53:16;;;;;;;;;4.00;1.00;;;;;14.01;82.22;100254.63;5036000;28;45498;-59
2022/12/23 02:55:42;;;;;;;;;0.40;0.40;;;;;13.98;82.59;100255.16;5037102;28;45279;-59
2022/12/23 02:58:09;;;;;;;;;1.25;0.00;;;;;13.99;82.31;100259.56;5019468;28;45484;-59
2022/12/23 03:00:35;;;;;;;;;4.00;1.00;;;;;13.80;81.98;100226.66;5019412;28;45976;-60
2022/12/23 03:03:00;;;;;;;;;1.00;1.00;;;;;13.98;82.02;100263.44;5057249;28;45373;-56
2022/12/23 03:05:32;;;;;;;;;2.00;2.00;;;;;13.77;81.46;100230.75;5056934;28;45229;-56
2022/12/23 03:08:01;;;;;;;;;2.00;1.00;;;;;13.91;81.79;100253.38;5057566;28;45241;-59
2022/12/23 03:10:49;;;;;;;;;0.80;0.80;;;;;13.92;82.06;100262.47;5022250;28;45440;-59
2022/12/23 03:13:43;;;;;;;;;0.60;0.20;;;;;13.92;81.51;100249.53;5055812;28;45532;-59
2022/12/23 03:16:26;;;;;;;;;0.00;0.00;;;;;13.93;81.97;100250.38;5056953;28;45523;-58
2022/12/23 03:19:00;;;;;;;;;2.00;1.00;;;;;13.93;81.65;100250.38;5055775;28;45458;-57
2022/12/23 03:21:31;;;;;;;;;2.40;0.20;;;;;13.90;81.75;100232.41;5056971;28;45506;-59
2022/12/23 03:24:00;;;;;;;;;0.00;0.00;;;;;13.67;81.22;100198.28;5055475;28;45332;-57
2022/12/23 03:26:33;;;;;;;;;1.80;1.00;;;;;13.89;80.95;100239.00;5055803;28;45234;-58
2022/12/23 03:29:12;;;;;;;;;1.20;0.00;;;;;13.22;81.76;100127.34;5057070;28;45450;-59
2022/12/23 03:31:37;;;;;;;;;1.40;1.40;;;;;13.90;81.28;100239.81;5055251;28;46534;-59
2022/12/23 03:34:05;;;;;;;;;1.00;1.00;;;;;13.91;81.45;100242.34;5038635;28;45400;-59
2022/12/23 03:36:41;;;;;;;;;1.00;1.00;;;;;13.93;81.50;100233.81;5039141;28;45414;-54
2022/12/23 03:39:10;;;;;;;;;0.40;0.40;;;;;13.90;81.40;100245.34;5055421;28;45384;-59
2022/12/23 03:41:39;;;;;;;;;1.80;1.00;;;;;13.89;81.35;100236.25;5051014;28;45649;-59
2022/12/23 03:44:09;;;;;;;;;1.00;1.00;;;;;13.89;81.07;100247.28;5036231;28;45441;-56
2022/12/23 03:47:06;;;;;;;;;2.20;1.00;;;;;13.89;81.38;100250.03;5036765;28;45279;-58
2022/12/23 03:49:37;;;;;;;;;2.80;0.60;;;;;13.89;81.28;100238.16;5036916;28;45377;-56
2022/12/23 03:52:06;;;;;;;;;0.20;0.20;;;;;13.88;81.38;100242.81;5036360;28;45350;-58
2022/12/23 03:54:39;;;;;;;;;0.00;0.00;;;;;13.71;81.41;100223.47;5035126;28;45521;-59
2022/12/23 03:57:04;;;;;;;;;1.00;0.00;;;;;13.88;81.95;100242.00;5035219;28;45176;-58
2022/12/23 03:59:41;;;;;;;;;1.25;0.00;;;;;13.60;81.64;100211.41;5019065;28;45309;-58
2022/12/23 04:02:14;;;;;;;;;1.80;1.00;;;;;13.20;81.87;100137.78;5034651;28;45960;-59
2022/12/23 04:04:49;;;;;;;;;0.20;0.20;;;;;13.87;81.79;100245.84;5035018;28;45345;-59
2022/12/23 04:07:24;;;;;;;;;1.00;1.00;;;;;13.88;81.79;100242.00;5036133;28;45389;-59
2022/12/23 04:09:52;;;;;;;;;0.00;0.00;;;;;13.87;82.02;100219.06;5035189;28;45397;-58
2022/12/23 04:12:19;;;;;;;;;1.00;1.00;;;;;13.85;82.13;100212.97;5034999;28;46539;-58
2022/12/23 04:14:46;;;;;;;;;2.00;0.00;;;;;13.88;82.06;100208.91;5034620;28;45431;-58
2022/12/23 04:17:12;;;;;;;;;1.00;1.00;;;;;13.85;82.02;100221.25;5035889;28;45370;-55
2022/12/23 04:19:37;;;;;;;;;3.00;1.75;;;;;13.49;82.14;100160.72;5035096;28;45366;-55
2022/12/23 04:22:03;;;;;;;;;0.00;0.00;;;;;13.82;82.33;100219.81;5036245;28;45709;-56
2022/12/23 04:24:28;;;;;;;;;2.25;2.00;;;;;13.80;82.82;100223.91;5036055;28;45493;-57
2022/12/23 04:26:54;;;;;;;;;2.25;1.25;;;;;13.64;82.47;100207.06;5036059;28;45302;-58
2022/12/23 04:29:20;;;;;;;;;1.25;1.00;;;;;13.79;82.48;100238.78;5035805;28;45376;-58
2022/12/23 04:31:45;;;;;;;;;1.25;0.75;;;;;13.81;82.50;100242.97;5035400;28;45372;-58
2022/12/23 04:34:11;;;;;;;;;1.00;1.00;;;;;13.81;82.75;100240.22;5035275;28;45378;-58
2022/12/23 04:36:36;;;;;;;;;3.00;1.50;;;;;13.63;82.50;100196.28;5035393;28;45424;-58
2022/12/23 04:39:02;;;;;;;;;4.25;3.50;;;;;13.81;82.85;100229.19;5034907;28;45384;-58
2022/12/23 04:41:27;;;;;;;;;1.25;0.50;;;;;13.79;83.03;100222.25;5037630;28;45347;-59
2022/12/23 04:43:53;;;;;;;;;1.25;1.00;;;;;13.82;82.80;100216.22;5055179;28;45472;-56
2022/12/23 04:46:19;;;;;;;;;0.75;0.75;;;;;13.82;82.48;100207.94;5055388;28;45478;-56
2022/12/23 04:48:45;;;;;;;;;2.00;2.00;;;;;13.64;82.79;100170.38;5054472;28;45507;-58
2022/12/23 04:51:10;;;;;;;;;1.00;1.00;;;;;13.84;83.15;100205.78;5055215;28;45414;-58
2022/12/23 04:53:36;;;;;;;;;2.25;2.25;;;;;13.79;83.07;100195.50;5055074;28;45380;-58
2022/12/23 04:56:02;;;;;;;;;4.00;3.00;;;;;13.61;83.28;100165.38;5055429;28;45295;-59
2022/12/23 04:58:27;;;;;;;;;2.75;1.00;;;;;13.82;83.12;100200.50;5055463;28;45339;-59
2022/12/23 05:01:03;;;;;;;;;1.25;0.50;;;;;13.79;83.15;100198.25;5055343;28;46314;-60
2022/12/23 05:03:29;;;;;;;;;2.00;1.00;;;;;13.83;83.17;100196.66;5037201;28;45427;-58
2022/12/23 05:05:55;;;;;;;;;3.25;2.00;;;;;13.88;82.89;100195.09;5055136;28;45285;-63
2022/12/23 05:08:20;;;;;;;;;3.25;2.00;;;;;13.73;82.88;100173.59;5055484;28;45515;-59
2022/12/23 05:10:46;;;;;;;;;1.25;1.00;;;;;13.90;83.07;100201.19;5055245;28;45291;-59
2022/12/23 05:13:11;;;;;;;;;3.75;2.00;;;;;13.88;82.52;100195.91;5055420;28;45311;-60
2022/12/23 05:15:37;;;;;;;;;3.00;1.50;;;;;13.90;83.13;100195.69;5055146;28;45356;-59
2022/12/23 05:18:02;;;;;;;;;3.00;3.00;;;;;13.68;82.84;100168.81;5055580;28;45328;-56
2022/12/23 05:20:28;;;;;;;;;1.50;1.50;;;;;13.92;83.05;100204.53;5054748;28;46310;-55
2022/12/23 05:22:53;;;;;;;;;1.25;1.25;;;;;13.68;83.26;100158.59;5055086;28;45422;-55
2022/12/23 05:25:19;;;;;;;;;3.00;1.00;;;;;13.93;83.19;100201.53;5053725;28;45546;-57
2022/12/23 05:27:44;;;;;;;;;1.00;1.00;;;;;13.89;83.40;100196.78;5054060;28;45634;-57
2022/12/23 05:30:10;;;;;;;;;2.00;1.00;;;;;13.89;83.42;100186.59;5054663;28;45629;-58
2022/12/23 05:32:35;;;;;;;;;1.00;1.00;;;;;13.91;83.71;100191.84;5054779;28;45764;-58
2022/12/23 05:35:01;;;;;;;;;0.00;0.00;;;;;13.96;83.22;100187.25;5055241;28;45402;-58
2022/12/23 05:37:27;;;;;;;;;1.75;1.50;;;;;13.91;83.24;100184.41;5053589;28;45286;-58
2022/12/23 05:39:52;;;;;;;;;0.25;0.25;;;;;13.97;83.47;100190.84;5054651;28;45390;-59
2022/12/23 05:42:18;;;;;;;;;2.75;2.75;;;;;13.96;83.91;100187.25;5043734;28;45351;-58
2022/12/23 05:44:44;;;;;;;;;0.00;0.00;;;;;13.99;84.08;100188.69;5034652;28;45217;-56
2022/12/23 05:47:10;;;;;;;;;1.20;1.20;;;;;13.90;83.89;100162.56;5035022;28;45492;-56
2022/12/23 05:49:35;;;;;;;;;1.00;1.00;;;;;13.98;84.34;100175.13;5034678;28;46633;-58
2022/12/23 05:52:01;;;;;;;;;1.00;1.00;;;;;13.88;84.91;100160.06;5010585;28;45923;-58
2022/12/23 05:54:26;;;;;;;;;0.00;0.00;;;;;13.96;84.42;100167.09;5058709;28;45338;-59
2022/12/23 05:56:52;;;;;;;;;1.00;1.00;;;;;13.96;85.03;100170.72;5058360;28;45468;-59
2022/12/23 05:59:17;;;;;;;;;5.00;3.00;;;;;13.92;85.05;100166.75;5058576;28;46423;-58
2022/12/23 06:01:43;;;;;;;;;1.50;1.00;;;;;13.95;85.52;100168.19;5058113;28;45460;-59
2022/12/23 06:04:08;;;;;;;;;2.25;1.00;;;;;13.95;85.56;100166.28;5058404;28;45421;-58
2022/12/23 06:06:34;;;;;;;;;2.50;1.00;;;;;13.95;85.31;100170.94;5058296;28;45365;-58
2022/12/23 06:08:59;;;;;;;;;5.25;4.50;;;;;13.93;85.83;100165.69;5058341;28;46823;-58
2022/12/23 06:11:25;;;;;;;;;2.50;2.50;;;;;13.91;86.40;100165.09;5057268;28;45380;-58
2022/12/23 06:13:51;;;;;;;;;2.25;2.25;;;;;13.90;86.07;100171.69;5057844;28;45395;-57
2022/12/23 06:16:17;;;;;;;;;1.20;1.20;;;;;13.85;86.50;100157.81;5058356;28;45308;-58
2022/12/23 06:18:42;;;;;;;;;2.00;1.00;;;;;13.92;86.56;100161.25;5056649;28;46459;-58
2022/12/23 06:21:08;;;;;;;;;2.00;1.00;;;;;13.75;86.04;100136.41;5057987;28;45254;-58
2022/12/23 06:23:33;;;;;;;;;2.75;1.00;;;;;13.94;86.15;100169.28;5073795;28;45357;-58
2022/12/23 06:26:00;;;;;;;;;3.00;2.00;;;;;13.74;86.45;100131.13;5073273;28;45224;-58
2022/12/23 06:28:25;;;;;;;;;1.00;1.00;;;;;13.37;86.33;100094.59;5058006;28;45421;-59
2022/12/23 06:30:54;;;;;;;;;0.75;0.75;;;;;13.86;86.39;100164.19;5073054;28;46081;-57
2022/12/23 06:33:20;;;;;;;;;0.20;0.00;;;;;13.94;86.63;100169.28;5057877;27;45399;-54
2022/12/23 06:35:46;;;;;;;;;1.00;1.00;;;;;13.94;86.45;100158.25;5057948;28;45597;-57
2022/12/23 06:38:11;;;;;;;;;1.00;0.00;;;;;13.96;86.34;100159.69;5057556;28;46273;-57
2022/12/23 06:40:36;;;;;;;;;0.00;0.00;;;;;13.99;86.00;100146.47;5057754;28;45415;-58
2022/12/23 06:43:02;;;;;;;;;0.00;0.00;;;;;13.99;86.13;100138.19;5055769;28;45404;-58
2022/12/23 06:45:27;;;;;;;;;0.00;0.00;;;;;13.98;86.54;100136.50;5058107;28;45574;-58
2022/12/23 06:47:53;;;;;;;;;0.50;0.25;;;;;14.01;86.17;100138.75;5056126;28;46541;-58
2022/12/23 06:50:19;;;;;;;;;1.25;1.25;;;;;14.01;85.91;100145.13;5057589;28;45412;-59
2022/12/23 06:52:44;;;;;;;;;0.40;0.40;;;;;14.03;86.35;100133.84;5057728;28;45250;-54
2022/12/23 06:55:10;;;;;;;;;1.00;1.00;;;;;14.01;86.00;100124.97;5047070;28;45398;-55
2022/12/23 06:57:35;;;;;;;;;0.00;0.00;;;;;13.80;85.97;100095.13;5040909;28;46086;-56
2022/12/23 07:00:05;;;;;;;;;0.00;0.00;;;;;14.05;86.13;100123.38;5055962;28;45460;-57
2022/12/23 07:02:31;;;;;;;;;0.00;0.00;;;;;14.07;85.70;100124.81;5053926;28;45339;-60
2022/12/23 07:04:57;;;;;;;;;0.00;0.00;;;;;14.04;86.13;100116.19;5057652;28;45465;-60
2022/12/23 07:07:22;;;;;;;;;0.00;0.00;;;;;13.88;86.04;100082.81;5056842;28;45266;-60
2022/12/23 07:09:48;;;;;;;;;0.75;0.75;;;;;14.05;85.70;100104.91;5057417;28;45789;-60
2022/12/23 07:12:13;;;;;;;;;0.75;0.50;;;;;13.86;86.16;100076.72;5057057;28;45320;-61
2022/12/23 07:14:38;;;;;;;;;1.00;1.00;;;;;14.08;86.03;100115.44;5057569;28;45652;-60
2022/12/23 07:17:04;;;;;;;;;1.00;1.00;;;;;14.07;85.87;100113.78;5056970;28;45450;-60
2022/12/23 07:19:29;;;;;;;;;1.00;1.00;;;;;14.09;85.72;100114.34;5057128;28;45309;-60
2022/12/23 07:21:55;;;;;;;;;0.00;0.00;;;;;13.92;85.47;100081.25;5056040;28;45233;-59
2022/12/23 07:24:21;;;;;;;;;0.00;0.00;;;;;14.03;85.48;100090.53;5055932;28;45424;-59
2022/12/23 07:26:46;;;;;;;;;0.00;0.00;;;;;14.08;85.93;100106.31;5055517;28;45409;-59
2022/12/23 07:29:12;;;;;;;;;2.00;0.00;;;;;14.06;85.58;100098.31;5055241;28;45784;-60
2022/12/23 07:31:37;;;;;;;;;1.00;0.00;;;;;14.07;85.69;100102.75;5056158;28;45483;-58
2022/12/23 07:34:03;;;;;;;;;1.00;0.00;;;;;14.07;86.09;100101.91;5055856;28;45437;-58
2022/12/23 07:36:28;;;;;;;;;0.50;0.00;;;;;14.05;86.18;100106.84;5056422;28;46359;-58
2022/12/23 07:38:54;;;;;;;;;0.00;0.00;;;;;14.06;86.15;100095.56;5057056;28;45361;-58
2022/12/23 07:41:19;;;;;;;;;0.50;0.50;;;;;14.06;85.63;100100.22;5056904;28;45468;-58
2022/12/23 07:43:45;;;;;;;;;0.00;0.00;;;;;14.05;85.77;100099.38;5057044;28;45462;-56
2022/12/23 07:46:10;;;;;;;;;0.50;0.50;;;;;13.87;85.47;100077.59;5056498;28;45512;-58
2022/12/23 07:48:36;;;;;;;;;0.00;0.00;;;;;14.05;85.77;100109.59;5056604;28;45499;-59
2022/12/23 07:51:02;;;;;;;;;0.00;0.00;;;;;14.10;85.63;100101.41;5056904;28;45397;-61
2022/12/23 07:53:28;;;;;;;;;0.00;0.00;;;;;14.09;85.34;100103.31;5056703;28;45314;-60
2022/12/23 07:55:53;;;;;;;;;0.00;0.00;;;;;13.96;85.39;100082.44;5038340;28;46503;-60
2022/12/23 07:58:19;;;;;;;;;0.50;0.25;;;;;14.14;85.60;100102.56;5052795;28;45639;-60
2022/12/23 08:00:44;;;;;;;;;0.00;0.00;;;;;14.16;85.72;100092.13;5056477;28;45435;-60
2022/12/23 08:03:10;;;;;;;;;0.00;0.00;;;;;14.12;84.83;100087.34;5056960;28;45851;-59
2022/12/23 08:05:35;;;;;;;;;0.50;0.00;;;;;14.19;85.15;100099.06;5037928;28;45930;-60
2022/12/23 08:08:01;;;;;;;;;0.00;0.00;;;;;14.15;85.38;100087.66;5054877;28;45308;-60
2022/12/23 08:10:26;;;;;;;;;2.00;1.00;;;;;14.22;85.50;100087.50;5056138;28;45381;-59
2022/12/23 08:12:52;;;;;;;;;0.75;0.75;;;;;14.13;84.70;100069.72;5056498;28;45417;-60
2022/12/23 08:15:17;;;;;;;;;0.00;0.00;;;;;14.21;84.74;100097.69;5055162;28;45788;-60
2022/12/23 08:17:43;;;;;;;;;0.00;0.00;;;;;14.23;84.72;100101.06;5054597;28;45438;-60
2022/12/23 08:20:09;;;;;;;;;0.00;0.00;;;;;14.30;84.68;100086.25;5056418;28;45562;-60
2022/12/23 08:22:34;;;;;;;;;0.00;0.00;;;;;14.30;84.61;100077.97;5056359;28;45419;-60
2022/12/23 08:25:00;;;;;;;;;0.00;0.00;;;;;14.36;84.37;100079.72;5056013;28;45998;-61
2022/12/23 08:27:25;;;;;;;;;0.00;0.00;;;;;14.34;84.11;100068.94;5055593;28;45361;-60
2022/12/23 08:29:51;;;;;;;;;0.00;0.00;;;;;14.34;84.38;100076.34;5056098;28;45493;-60
2022/12/23 08:32:16;;;;;;;;;0.00;0.00;;;;;14.28;84.10;100069.09;5056269;28;45379;-61
2022/12/23 08:34:42;;;;;;;;;1.00;1.00;;;;;14.33;84.14;100078.31;5055791;28;45912;-60
2022/12/23 08:37:07;;;;;;;;;1.00;0.00;;;;;14.27;83.92;100059.13;5054857;28;45238;-60
2022/12/23 08:39:33;;;;;;;;;2.00;2.00;;;;;14.29;84.43;100055.03;5056192;28;45399;-61
2022/12/23 08:41:58;;;;;;;;;0.25;0.25;;;;;14.21;84.40;100034.22;5055752;28;45325;-62
2022/12/23 08:44:26;;;;;;;;;0.00;0.00;;;;;14.35;84.22;100055.94;5034190;28;45594;-60
2022/12/23 08:46:55;;;;;;;;;1.00;0.00;;;;;14.40;84.53;100058.78;5034898;28;45432;-61
2022/12/23 08:49:21;;;;;;;;;0.00;0.00;;;;;14.22;84.27;100005.56;5036022;28;45813;-60
2022/12/23 08:51:46;;;;;;;;;0.00;0.00;;;;;14.23;84.07;100015.50;5034188;28;45501;-55
2022/12/23 08:54:12;;;;;;;;;1.00;1.00;;;;;14.44;84.11;100043.38;5033854;28;45701;-60
2022/12/23 08:56:41;;;;;;;;;0.00;0.00;;;;;14.46;83.92;100037.63;5041734;28;45634;-60
2022/12/23 08:59:09;;;;;;;;;0.20;0.00;;;;;14.44;84.29;100026.81;5054149;28;45323;-60
2022/12/23 09:01:35;;;;;;;;;1.60;0.40;;;;;14.43;83.89;100008.59;5013265;28;45511;-59
2022/12/23 09:04:02;;;;;;;;;1.00;1.00;;;;;14.45;84.09;100009.16;5053589;28;45640;-59
2022/12/23 09:06:30;;;;;;;;;0.60;0.60;;;;;14.46;84.20;99997.03;5052762;28;45378;-59
2022/12/23 09:08:56;;;;;;;;;1.40;1.00;;;;;14.26;84.13;99933.28;5034136;27;45566;-62
2022/12/23 09:11:26;;;;;;;;;1.00;1.00;;;;;14.43;84.05;99938.72;5050830;28;45622;-65
2022/12/23 09:13:52;;;;;;;;;1.60;1.60;;;;;14.36;84.11;99903.06;5051202;28;45435;-61
2022/12/23 09:16:18;;;;;;;;;0.25;0.25;;;;;14.23;84.12;99890.47;5052552;28;45451;-61
2022/12/23 09:18:43;;;;;;;;;0.25;0.25;;;;;14.40;84.07;99915.22;5053486;28;45335;-60
2022/12/23 09:21:11;;;;;;;;;0.00;0.00;;;;;14.26;84.57;99913.97;5052459;28;45388;-59
2022/12/23 09:23:36;;;;;;;;;0.00;0.00;;;;;14.42;84.45;99965.53;5035815;28;46711;-60
2022/12/23 09:26:05;;;;;;;;;0.00;0.00;;;;;14.44;84.39;99965.25;5053108;28;45371;-60
2022/12/23 09:28:31;;;;;;;;;0.00;0.00;;;;;14.25;83.80;99957.28;5053809;28;45402;-60
2022/12/23 09:30:56;;;;;;;;;0.00;0.00;;;;;14.48;84.02;100011.41;5052309;28;45388;-61
2022/12/23 09:33:22;;;;;;;;;0.50;0.50;;;;;14.49;83.78;100004.81;5053415;28;46894;-60
2022/12/23 09:35:48;;;;;;;;;0.00;0.00;;;;;14.38;83.84;99991.97;5035441;28;45380;-60
2022/12/23 09:38:13;;;;;;;;;0.00;0.00;;;;;14.53;84.15;99999.63;5050894;28;45419;-59
2022/12/23 09:40:39;;;;;;;;;0.00;0.00;;;;;14.55;84.02;99996.56;5053828;28;45526;-59
2022/12/23 09:43:23;;;;;;;;;1.25;0.00;;;;;14.41;83.60;99994.19;5051847;28;45343;-59
2022/12/23 09:46:14;;;;;;;;;3.80;2.00;;;;;14.55;83.81;100019.50;5053473;28;45379;-60
2022/12/23 09:48:44;;;;;;;;;2.20;2.00;;;;;14.40;83.75;99966.88;5052187;28;45428;-60
2022/12/23 09:51:10;;;;;;;;;0.40;0.40;;;;;14.60;83.53;100010.44;5053278;28;45378;-61
2022/12/23 09:53:51;;;;;;;;;0.00;0.00;;;;;14.44;83.36;100001.13;5053468;28;46438;-59
2022/12/23 09:56:39;;;;;;;;;0.00;0.00;;;;;14.61;83.40;100021.25;5051471;28;45412;-60
2022/12/23 09:59:35;;;;;;;;;0.00;0.00;;;;;14.60;83.71;100004.94;5053483;28;45405;-60
2022/12/23 10:02:17;;;;;;;;;0.60;0.00;;;;;14.63;83.71;99993.38;5039901;28;45383;-60
2022/12/23 10:05:11;;;;;;;;;0.00;0.00;;;;;14.39;83.07;99935.66;5033646;28;45446;-59
2022/12/23 10:07:48;;;;;;;;;0.00;0.00;;;;;14.66;82.79;99979.03;5036798;28;45489;-60
2022/12/23 10:10:17;;;;;;;;;0.00;0.00;;;;;14.60;82.53;99964.34;5018890;28;45400;-61
2022/12/23 10:12:45;;;;;;;;;1.00;1.00;;;;;14.84;82.44;100008.28;5051890;28;45940;-60
2022/12/23 10:15:29;;;;;;;;;0.00;0.00;;;;;14.85;82.41;99998.06;5034752;28;45449;-58
2022/12/23 10:17:56;;;;;;;;;0.00;0.00;;;;;14.86;82.16;99992.31;5052949;28;45721;-60
2022/12/23 10:20:33;;;;;;;;;0.80;0.00;;;;;14.84;82.71;99990.88;5051468;28;45531;-60
2022/12/23 10:22:58;;;;;;;;;0.20;0.20;;;;;14.84;83.06;99983.41;5053050;28;45360;-60
2022/12/23 10:25:50;;;;;;;;;0.00;0.00;;;;;14.86;83.36;99985.94;5051140;28;45810;-60
2022/12/23 10:28:16;;;;;;;;;1.00;0.00;;;;;14.79;83.43;99971.50;5052132;28;45447;-60
2022/12/23 10:30:41;;;;;;;;;1.00;1.00;;;;;14.72;84.43;99960.59;5052513;28;45490;-60
2022/12/23 10:33:35;;;;;;;;;0.00;0.00;;;;;14.79;84.10;99991.66;5034499;28;45533;-60
2022/12/23 10:36:22;;;;;;;;;0.00;0.00;;;;;14.79;84.62;99988.06;5051036;28;45713;-60
2022/12/23 10:38:58;;;;;;;;;0.00;0.00;;;;;14.78;84.59;99987.22;5054281;28;45386;-59
2022/12/23 10:41:32;;;;;;;;;0.00;0.00;;;;;14.73;84.85;99982.44;5053901;28;45905;-60
2022/12/23 10:44:31;;;;;;;;;0.00;0.00;;;;;14.78;85.06;99989.97;5055106;28;45581;-59
2022/12/23 10:47:19;;;;;;;;;0.80;0.00;;;;;14.77;84.66;99997.44;5056057;28;45853;-58
2022/12/23 10:50:00;;;;;;;;;0.00;0.00;;;;;14.60;84.04;99953.31;5054698;28;45446;-61
2022/12/23 10:52:31;;;;;;;;;0.00;0.00;;;;;14.84;83.13;99971.56;5054364;28;45433;-58
2022/12/23 10:54:57;;;;;;;;;0.00;0.00;;;;;14.90;83.61;99982.38;5038171;28;45718;-60
2022/12/23 10:57:23;;;;;;;;;0.00;0.00;;;;;14.90;83.12;99989.84;5055524;28;45372;-62
2022/12/23 10:59:49;;;;;;;;;0.80;0.00;;;;;14.96;82.80;99977.75;5055644;28;45348;-60
2022/12/23 11:02:14;;;;;;;;;0.00;0.00;;;;;15.03;82.89;99964.56;5054724;28;45355;-60
2022/12/23 11:04:41;;;;;;;;;0.00;0.00;;;;;15.07;82.22;99983.38;5055825;28;45519;-59
2022/12/23 11:07:09;;;;;;;;;1.00;0.00;;;;;15.06;82.36;99977.03;5054100;28;47714;-59
2022/12/23 11:09:40;;;;;;;;;0.00;0.00;;;;;15.03;82.40;99972.88;5054294;28;45478;-60
2022/12/23 11:12:07;;;;;;;;;0.00;0.00;;;;;15.09;81.93;99984.78;5054724;28;45751;-61
2022/12/23 11:14:52;;;;;;;;;0.00;0.00;;;;;14.91;81.41;99958.38;5054763;28;45444;-61
2022/12/23 11:17:19;;;;;;;;;0.00;0.00;;;;;15.08;81.84;99987.81;5042743;28;46418;-61
2022/12/23 11:19:44;;;;;;;;;0.00;0.00;;;;;15.16;81.64;99995.66;5055671;28;45370;-60
2022/12/23 11:22:23;;;;;;;;;0.00;0.00;;;;;15.14;81.17;100011.63;5056988;28;45420;-61
2022/12/23 11:24:48;;;;;;;;;1.80;0.80;;;;;15.15;81.05;100018.84;5055800;28;45372;-61
2022/12/23 11:27:17;;;;;;;;;0.00;0.00;;;;;15.15;81.90;100021.59;5055615;28;46384;-60
2022/12/23 11:29:47;;;;;;;;;0.00;0.00;;;;;15.09;80.78;100003.31;5055436;28;45395;-60
2022/12/23 11:32:19;;;;;;;;;0.00;0.00;;;;;15.16;80.91;100009.47;5039605;28;45401;-61
2022/12/23 11:34:45;;;;;;;;;0.00;0.00;;;;;15.21;80.73;100003.97;5013209;28;48024;-60
2022/12/23 11:37:23;;;;;;;;;1.00;0.00;;;;;15.07;80.17;99961.28;5033761;28;45441;-59
2022/12/23 11:39:48;;;;;;;;;0.00;0.00;;;;;15.39;79.83;100013.84;5034873;28;45238;-61
2022/12/23 11:42:18;;;;;;;;;0.75;0.00;;;;;15.40;79.40;100014.66;5036287;28;45377;-61
2022/12/23 11:44:45;;;;;;;;;0.00;0.00;;;;;15.42;79.14;99993.13;5051330;28;45579;-60
2022/12/23 11:47:46;;;;;;;;;0.00;0.00;;;;;15.45;78.36;99992.59;5038298;28;46296;-60
2022/12/23 11:50:30;;;;;;;;;0.00;0.00;;;;;15.51;78.34;99991.53;5089612;27;45432;-59
2022/12/23 11:53:22;;;;;;;;;0.00;0.00;;;;;15.50;78.41;99989.88;5058247;28;45306;-59
2022/12/23 11:56:00;;;;;;;;;0.00;0.00;;;;;15.54;77.44;99996.53;5058919;28;45824;-60
2022/12/23 11:58:25;;;;;;;;;1.60;0.80;;;;;15.52;77.31;99993.19;5056407;28;45344;-60
2022/12/23 12:00:53;;;;;;;;;1.25;0.00;;;;;15.47;77.83;99982.09;5038457;28;45399;-62
2022/12/23 12:03:20;;;;;;;;;0.00;0.00;;;;;15.34;77.32;99939.16;5021858;28;45416;-60